Time;durP1;ratioP1;P1;durP2;ratioP2;P2;SDS_P1;SDS_P2;PMS_P1;PMS_P2;Temp;Humidity;BMP_temperature;BMP_pressure;BME280_temperature;BME280_humidity;BME280_pressure;Samples;Min_cycle;Max_cycle;Signal;HPM_P1;HPM_P2
2024/03/03 00:00:45;;;;;;;;;;;;;;;9.93;100.00;98560.91;5114116;28;19915;-78
2024/03/03 00:03:11;;;;;;;;;;;;;;;9.95;100.00;98559.22;5112077;28;19967;-79
2024/03/03 00:05:36;;;;;;;;;;;;;;;9.99;100.00;98561.91;5094105;28;19916;-78
2024/03/03 00:08:01;;;;;;;;;;;;;;;10.01;100.00;98557.50;5108749;28;19916;-79
2024/03/03 00:10:26;;;;;;;;;;;;;;;10.02;100.00;98558.28;5093769;28;20010;-79
2024/03/03 00:12:52;;;;;;;;;;;;;;;9.97;100.00;98551.31;5093492;28;19916;-79
2024/03/03 00:15:17;;;;;;;;;;;;;;;9.98;100.00;98552.09;5104087;28;19919;-79
2024/03/03 00:17:42;;;;;;;;;;;;;;;9.97;100.00;98548.53;5098356;28;19920;-79
2024/03/03 00:20:08;;;;;;;;;;;;;;;9.97;100.00;98550.53;5104121;28;19915;-79
2024/03/03 00:22:33;;;;;;;;;;;;;;;9.99;100.00;98548.13;5113412;28;20285;-79
2024/03/03 00:24:58;;;;;;;;;;;;;;;9.99;100.00;98553.63;5104744;28;19916;-79
2024/03/03 00:27:26;;;;;;;;;;;;;;;9.98;100.00;98544.59;5110664;28;19915;-79
2024/03/03 00:29:51;;;;;;;;;;;;;;;9.99;100.00;98545.34;5104743;28;19977;-79
2024/03/03 00:32:17;;;;;;;;;;;;;;;9.99;100.00;98537.06;5093296;28;20362;-79
2024/03/03 00:34:42;;;;;;;;;;;;;;;9.99;100.00;98537.84;5093440;28;19916;-80
2024/03/03 00:37:11;;;;;;;;;;;;;;;10.07;100.00;98538.41;5096816;28;20305;-79
2024/03/03 00:39:39;;;;;;;;;;;;;;;10.08;100.00;98539.97;5113542;28;19916;-79
2024/03/03 00:42:05;;;;;;;;;;;;;;;9.94;100.00;98534.84;5110550;28;19912;-79
2024/03/03 00:44:30;;;;;;;;;;;;;;;9.98;100.00;98527.25;5093182;28;19923;-80
2024/03/03 00:46:55;;;;;;;;;;;;;;;9.96;100.00;98535.19;5094474;28;19916;-79
2024/03/03 00:49:20;;;;;;;;;;;;;;;10.04;100.00;98533.78;5103814;28;20389;-79
2024/03/03 00:51:47;;;;;;;;;;;;;;;10.09;100.00;98536.78;5096994;28;20011;-80
2024/03/03 00:54:13;;;;;;;;;;;;;;;10.12;100.00;98537.91;5093259;28;19922;-78
2024/03/03 00:56:38;;;;;;;;;;;;;;;10.14;100.00;98536.22;5093003;28;20377;-79
2024/03/03 00:59:03;;;;;;;;;;;;;;;10.07;100.00;98532.88;5094280;28;20381;-78
2024/03/03 01:01:29;;;;;;;;;;;;;;;10.06;100.00;98536.88;5107818;28;19969;-80
2024/03/03 01:03:55;;;;;;;;;;;;;;;10.02;100.00;98534.22;5104167;28;19948;-79
2024/03/03 01:06:20;;;;;;;;;;;;;;;10.06;100.00;98534.91;5108307;28;19963;-79
2024/03/03 01:08:45;;;;;;;;;;;;;;;10.01;100.00;98531.88;5104049;28;20461;-80
2024/03/03 01:11:11;;;;;;;;;;;;;;;9.99;100.00;98537.06;5094145;28;19969;-79
2024/03/03 01:13:36;;;;;;;;;;;;;;;10.03;100.00;98534.97;5105337;28;19999;-78
2024/03/03 01:16:01;;;;;;;;;;;;;;;10.02;100.00;98533.44;5107789;28;20015;-78
2024/03/03 01:18:27;;;;;;;;;;;;;;;10.10;100.00;98538.31;5112985;28;20399;-79
2024/03/03 01:20:53;;;;;;;;;;;;;;;10.17;100.00;98524.34;5100210;28;20292;-80
2024/03/03 01:23:18;;;;;;;;;;;;;;;10.18;100.00;98528.66;5105431;28;20014;-79
2024/03/03 01:25:43;;;;;;;;;;;;;;;10.25;100.00;98527.66;5105914;28;19973;-79
2024/03/03 01:28:09;;;;;;;;;;;;;;;10.24;100.00;98520.63;5092274;28;19920;-79
2024/03/03 01:30:34;;;;;;;;;;;;;;;10.12;100.00;98519.34;5092389;28;19973;-80
2024/03/03 01:33:00;;;;;;;;;;;;;;;10.19;100.00;98521.13;5092157;28;20282;-79
2024/03/03 01:35:25;;;;;;;;;;;;;;;10.24;100.00;98522.59;5092583;28;19916;-79
2024/03/03 01:37:50;;;;;;;;;;;;;;;10.23;100.00;98516.31;5101553;28;20395;-79
2024/03/03 01:40:16;;;;;;;;;;;;;;;10.19;100.00;98521.91;5112066;28;19923;-78
2024/03/03 01:42:41;;;;;;;;;;;;;;;10.07;100.00;98513.56;5104437;28;20401;-80
2024/03/03 01:45:12;;;;;;;;;;;;;;;9.99;100.00;98526.03;5092628;28;19916;-79
2024/03/03 01:47:37;;;;;;;;;;;;;;;10.03;100.00;98518.41;5112269;28;19919;-79
2024/03/03 01:50:03;;;;;;;;;;;;;;;10.05;100.00;98518.78;5096927;28;19970;-79
2024/03/03 01:52:28;;;;;;;;;;;;;;;10.01;100.00;98515.31;5092975;28;19916;-79
2024/03/03 01:54:54;;;;;;;;;;;;;;;10.07;100.00;98524.59;5091569;28;19952;-78
2024/03/03 01:57:20;;;;;;;;;;;;;;;10.03;100.00;98521.19;5091515;28;19924;-78
2024/03/03 01:59:46;;;;;;;;;;;;;;;10.05;100.00;98518.78;5105494;28;19916;-78
2024/03/03 02:02:11;;;;;;;;;;;;;;;10.02;100.00;98522.38;5091840;28;20455;-79
2024/03/03 02:04:37;;;;;;;;;;;;;;;9.92;100.00;98520.72;5105173;28;19916;-80
2024/03/03 02:07:02;;;;;;;;;;;;;;;9.82;100.00;98514.28;5100160;28;20002;-80
2024/03/03 02:09:27;;;;;;;;;;;;;;;9.68;100.00;98509.91;5111452;28;20476;-79
2024/03/03 02:11:53;;;;;;;;;;;;;;;9.43;100.00;98515.31;5102513;28;19920;-79
2024/03/03 02:14:18;;;;;;;;;;;;;;;9.31;100.00;98507.72;5092663;28;20265;-79
2024/03/03 02:16:44;;;;;;;;;;;;;;;9.19;100.00;98511.19;5111569;28;19959;-79
2024/03/03 02:19:09;;;;;;;;;;;;;;;9.08;100.00;98511.47;5110621;28;20412;-79
2024/03/03 02:21:34;;;;;;;;;;;;;;;9.02;100.00;98524.19;5099047;28;20008;-79
2024/03/03 02:24:00;;;;;;;;;;;;;;;9.04;100.00;98519.03;5096869;28;19924;-79
2024/03/03 02:26:25;;;;;;;;;;;;;;;8.98;100.00;98521.50;5098920;28;19915;-79
2024/03/03 02:28:51;;;;;;;;;;;;;;;8.92;100.00;98519.72;5111944;28;19922;-79
2024/03/03 02:31:17;;;;;;;;;;;;;;;8.77;100.00;98512.97;5091561;28;19937;-79
2024/03/03 02:33:42;;;;;;;;;;;;;;;8.76;100.00;98519.69;5106034;28;20326;-79
2024/03/03 02:36:09;;;;;;;;;;;;;;;8.77;100.00;98519.28;5100644;28;19927;-79
2024/03/03 02:38:34;;;;;;;;;;;;;;;8.60;100.00;98523.22;5097228;28;19924;-80
2024/03/03 02:40:59;;;;;;;;;;;;;;;8.56;100.00;98525.25;5104716;28;19938;-79
2024/03/03 02:43:25;;;;;;;;;;;;;;;8.57;100.00;98532.31;5104957;28;19995;-80
2024/03/03 02:45:50;;;;;;;;;;;;;;;8.34;100.00;98524.94;5091038;28;19945;-81
2024/03/03 02:48:17;;;;;;;;;;;;;;;8.28;100.00;98534.09;5104648;28;19916;-79
2024/03/03 02:50:42;;;;;;;;;;;;;;;8.24;100.00;98527.91;5098782;28;19919;-79
2024/03/03 02:53:08;;;;;;;;;;;;;;;8.26;100.00;98539.25;5096732;28;19923;-79
2024/03/03 02:55:33;;;;;;;;;;;;;;;8.17;100.00;98534.31;5091867;28;20388;-79
2024/03/03 02:57:58;;;;;;;;;;;;;;;8.16;100.00;98535.50;5091690;28;19916;-79
2024/03/03 03:00:24;;;;;;;;;;;;;;;8.04;100.00;98541.66;5111267;28;19916;-79
2024/03/03 03:02:49;;;;;;;;;;;;;;;8.00;100.00;98533.47;5110284;28;19916;-79
2024/03/03 03:05:15;;;;;;;;;;;;;;;7.90;100.00;98537.19;5099522;28;20008;-79
2024/03/03 03:07:40;;;;;;;;;;;;;;;7.90;100.00;98550.94;5098068;28;20376;-79
2024/03/03 03:10:05;;;;;;;;;;;;;;;7.85;100.00;98548.69;5090751;28;19969;-79
2024/03/03 03:12:31;;;;;;;;;;;;;;;7.82;100.00;98544.03;5104063;28;20424;-79
2024/03/03 03:14:56;;;;;;;;;;;;;;;7.73;100.00;98546.56;5097783;28;19973;-80
2024/03/03 03:17:21;;;;;;;;;;;;;;;7.74;100.00;98543.41;5110830;28;19961;-79
2024/03/03 03:19:47;;;;;;;;;;;;;;;7.77;100.00;98552.78;5110833;28;19969;-78
2024/03/03 03:22:13;;;;;;;;;;;;;;;7.85;100.00;98551.44;5097258;28;19924;-79
2024/03/03 03:24:38;;;;;;;;;;;;;;;7.89;100.00;98552.16;5090339;28;19921;-80
2024/03/03 03:27:04;;;;;;;;;;;;;;;7.90;100.00;98550.16;5103863;28;19923;-80
2024/03/03 03:29:29;;;;;;;;;;;;;;;7.83;100.00;98559.34;5091811;28;19916;-80
2024/03/03 03:31:54;;;;;;;;;;;;;;;7.95;100.00;98552.44;5091651;28;19916;-80
2024/03/03 03:34:20;;;;;;;;;;;;;;;7.91;100.00;98555.25;5090271;28;19916;-79
2024/03/03 03:36:45;;;;;;;;;;;;;;;7.89;100.00;98556.91;5090125;28;20018;-80
2024/03/03 03:39:12;;;;;;;;;;;;;;;8.00;100.00;98560.22;5109865;28;20290;-79
2024/03/03 03:41:47;;;;;;;;;;;;;;;8.04;100.00;98555.41;5110842;28;19927;-80
2024/03/03 03:44:12;;;;;;;;;;;;;;;8.08;100.00;98553.34;5110760;28;20385;-79
2024/03/03 03:46:38;;;;;;;;;;;;;;;8.10;100.00;98562.75;5096400;28;19916;-79
2024/03/03 03:49:07;;;;;;;;;;;;;;;8.04;100.00;98567.19;5111731;28;20285;-79
2024/03/03 03:51:32;;;;;;;;;;;;;;;8.08;100.00;98564.34;5110235;28;19920;-80
2024/03/03 03:53:58;;;;;;;;;;;;;;;8.03;100.00;98568.38;5090246;28;19916;-79
2024/03/03 03:56:24;;;;;;;;;;;;;;;7.89;100.00;98568.66;5104799;28;19927;-79
2024/03/03 03:58:49;;;;;;;;;;;;;;;7.92;100.00;98562.31;5110174;28;20278;-79
2024/03/03 04:01:19;;;;;;;;;;;;;;;8.06;100.00;98570.31;5097716;28;19916;-78
2024/03/03 04:03:44;;;;;;;;;;;;;;;8.18;100.00;98568.91;5101711;28;19973;-79
2024/03/03 04:06:09;;;;;;;;;;;;;;;8.13;100.00;98563.88;5091284;28;19920;-79
2024/03/03 04:08:35;;;;;;;;;;;;;;;8.18;100.00;98566.91;5098188;28;19916;-79
2024/03/03 04:11:00;;;;;;;;;;;;;;;8.17;100.00;98570.88;5109079;28;19923;-79
2024/03/03 04:13:25;;;;;;;;;;;;;;;8.21;100.00;98572.75;5099300;28;20300;-79
2024/03/03 04:15:51;;;;;;;;;;;;;;;8.20;100.00;98563.72;5095780;28;19994;-79
2024/03/03 04:18:16;;;;;;;;;;;;;;;8.18;100.00;98564.16;5090167;28;19923;-79
2024/03/03 04:20:41;;;;;;;;;;;;;;;8.19;100.00;98584.22;5102788;28;19920;-79
2024/03/03 04:23:07;;;;;;;;;;;;;;;8.18;100.00;98572.44;5091127;28;19992;-79
2024/03/03 04:25:32;;;;;;;;;;;;;;;8.08;100.00;98567.88;5103375;28;19916;-79
2024/03/03 04:27:57;;;;;;;;;;;;;;;8.07;100.00;98571.09;5091211;28;19923;-78
2024/03/03 04:30:22;;;;;;;;;;;;;;;8.07;100.00;98574.63;5103519;28;20106;-79
2024/03/03 04:32:48;;;;;;;;;;;;;;;7.94;100.00;98576.44;5109898;28;20289;-79
2024/03/03 04:35:13;;;;;;;;;;;;;;;7.92;100.00;98575.28;5097016;28;19920;-79
2024/03/03 04:37:38;;;;;;;;;;;;;;;7.91;100.00;98571.75;5130492;27;19929;-79
2024/03/03 04:40:04;;;;;;;;;;;;;;;7.81;100.00;98572.75;5113885;28;19917;-79
2024/03/03 04:42:29;;;;;;;;;;;;;;;7.74;100.00;98572.88;5101717;28;19916;-78
2024/03/03 04:44:54;;;;;;;;;;;;;;;7.44;100.00;98578.50;5099991;28;19943;-79
2024/03/03 04:47:20;;;;;;;;;;;;;;;7.47;100.00;98574.94;5101331;28;19920;-79
2024/03/03 04:49:45;;;;;;;;;;;;;;;7.29;100.00;98577.97;5099814;28;19916;-79
2024/03/03 04:52:10;;;;;;;;;;;;;;;7.26;100.00;98579.56;5100915;28;19945;-79
2024/03/03 04:54:36;;;;;;;;;;;;;;;7.15;100.00;98580.94;5113441;28;20021;-79
2024/03/03 04:57:01;;;;;;;;;;;;;;;7.02;100.00;98588.97;5113393;28;19915;-79
2024/03/03 04:59:26;;;;;;;;;;;;;;;6.93;100.00;98585.97;5113556;28;19943;-80
2024/03/03 05:01:51;;;;;;;;;;;;;;;6.91;100.00;98588.34;5113382;28;19916;-79
2024/03/03 05:04:17;;;;;;;;;;;;;;;7.02;100.00;98586.22;5113167;28;20371;-79
2024/03/03 05:06:46;;;;;;;;;;;;;;;7.15;100.00;98586.44;5093857;28;19912;-80
2024/03/03 05:09:11;;;;;;;;;;;;;;;7.11;100.00;98594.75;5107039;28;19916;-79
2024/03/03 05:11:37;;;;;;;;;;;;;;;7.14;100.00;98593.91;5107148;28;19950;-79
2024/03/03 05:14:02;;;;;;;;;;;;;;;7.17;100.00;98595.03;5107652;28;19919;-80
2024/03/03 05:16:27;;;;;;;;;;;;;;;7.12;100.00;98593.53;5112945;28;19945;-79
2024/03/03 05:18:54;;;;;;;;;;;;;;;7.12;100.00;98598.25;5098682;28;20019;-79
2024/03/03 05:21:19;;;;;;;;;;;;;;;7.13;100.00;98597.81;5098206;28;19951;-79
2024/03/03 05:23:44;;;;;;;;;;;;;;;7.17;100.00;98597.78;5099999;28;19955;-79
2024/03/03 05:26:14;;;;;;;;;;;;;;;7.18;100.00;98594.59;5112141;28;20345;-79
2024/03/03 05:28:40;;;;;;;;;;;;;;;7.22;100.00;98600.84;5112742;28;19920;-79
2024/03/03 05:31:05;;;;;;;;;;;;;;;7.40;100.00;98602.53;5092506;28;19923;-79
2024/03/03 05:33:31;;;;;;;;;;;;;;;7.63;100.00;98603.31;5107002;28;20347;-79
2024/03/03 05:35:56;;;;;;;;;;;;;;;7.85;100.00;98598.19;5108776;28;19951;-78
2024/03/03 05:38:21;;;;;;;;;;;;;;;8.08;100.00;98600.91;5092444;28;19916;-79
2024/03/03 05:40:47;;;;;;;;;;;;;;;8.26;100.00;98599.81;5093545;28;20398;-78
2024/03/03 05:43:12;;;;;;;;;;;;;;;8.28;100.00;98592.66;5106986;28;20011;-79
2024/03/03 05:45:37;;;;;;;;;;;;;;;8.54;100.00;98600.03;5112300;28;19923;-79
2024/03/03 05:48:03;;;;;;;;;;;;;;;8.69;100.00;98606.00;5112264;28;19958;-79
2024/03/03 05:50:28;;;;;;;;;;;;;;;8.90;100.00;98611.06;5098537;28;19920;-79
2024/03/03 05:52:53;;;;;;;;;;;;;;;9.04;100.00;98612.75;5099100;28;19916;-80
2024/03/03 05:55:19;;;;;;;;;;;;;;;9.31;100.00;98618.78;5093017;28;19920;-79
2024/03/03 05:57:45;;;;;;;;;;;;;;;9.50;100.00;98621.91;5092023;28;19916;-80
2024/03/03 06:00:14;;;;;;;;;;;;;;;9.49;100.00;98621.13;5093187;28;19916;-79
2024/03/03 06:02:40;;;;;;;;;;;;;;;9.45;100.00;98616.91;5104900;28;19941;-78
2024/03/03 06:05:06;;;;;;;;;;;;;;;9.28;100.00;98624.41;5098372;28;19920;-80
2024/03/03 06:07:31;;;;;;;;;;;;;;;9.34;100.00;98633.72;5098232;28;20362;-79
2024/03/03 06:09:56;;;;;;;;;;;;;;;9.38;100.00;98621.38;5106445;28;20378;-80
2024/03/03 06:12:21;;;;;;;;;;;;;;;9.59;100.00;98622.06;5104839;28;19927;-80
2024/03/03 06:14:47;;;;;;;;;;;;;;;9.68;100.00;98625.78;5092194;28;19961;-80
2024/03/03 06:17:13;;;;;;;;;;;;;;;9.77;100.00;98625.94;5104403;28;19919;-81
2024/03/03 06:19:38;;;;;;;;;;;;;;;9.78;100.00;98627.47;5110175;28;19999;-80
2024/03/03 06:22:03;;;;;;;;;;;;;;;9.71;100.00;98630.41;5113079;28;19923;-80
2024/03/03 06:24:29;;;;;;;;;;;;;;;9.71;100.00;98632.41;5098328;28;19920;-79
2024/03/03 06:26:54;;;;;;;;;;;;;;;9.82;100.00;98634.91;5111918;28;19915;-80
2024/03/03 06:29:19;;;;;;;;;;;;;;;10.26;100.00;98633.38;5093015;28;19916;-81
2024/03/03 06:31:45;;;;;;;;;;;;;;;10.62;100.00;98636.69;5103941;28;19916;-79
2024/03/03 06:34:10;;;;;;;;;;;;;;;11.07;100.00;98630.25;5093357;28;20339;-79
2024/03/03 06:36:36;;;;;;;;;;;;;;;11.08;100.00;98637.34;5104366;28;19912;-80
2024/03/03 06:39:03;;;;;;;;;;;;;;;10.86;100.00;98645.47;5106795;28;19912;-81
2024/03/03 06:41:28;;;;;;;;;;;;;;;10.67;100.00;98643.69;5107326;28;20380;-81
2024/03/03 06:43:55;;;;;;;;;;;;;;;10.62;100.00;98644.97;5112854;28;19963;-79
2024/03/03 06:46:20;;;;;;;;;;;;;;;10.91;100.00;98640.19;5107283;28;20324;-80
2024/03/03 06:48:45;;;;;;;;;;;;;;;11.31;100.00;98646.09;5112241;28;19915;-83
2024/03/03 06:51:12;;;;;;;;;;;;;;;11.69;99.61;98651.56;5111928;28;19923;-81
2024/03/03 06:53:38;;;;;;;;;;;;;;;11.88;97.44;98652.56;5100106;28;19924;-81
2024/03/03 06:56:04;;;;;;;;;;;;;;;12.03;94.88;98644.56;5103328;28;19931;-80
2024/03/03 06:58:29;;;;;;;;;;;;;;;11.83;93.51;98647.59;5104506;28;19941;-80
2024/03/03 07:00:54;;;;;;;;;;;;;;;11.82;93.87;98640.53;5108386;28;19955;-80
2024/03/03 07:06:06;;;;;;;;;;;;;;;12.39;91.08;98644.91;5067956;28;19991;-80
2024/03/03 07:08:31;;;;;;;;;;;;;;;12.84;90.71;98649.97;5111015;28;19961;-81
2024/03/03 07:10:56;;;;;;;;;;;;;;;12.64;88.28;98660.63;5108420;28;19965;-81
2024/03/03 07:13:21;;;;;;;;;;;;;;;12.68;86.90;98655.72;5103757;28;19911;-80
2024/03/03 07:15:47;;;;;;;;;;;;;;;12.71;86.17;98660.38;5111643;28;19920;-80
2024/03/03 07:18:12;;;;;;;;;;;;;;;12.39;86.70;98663.50;5097608;28;20423;-81
2024/03/03 07:20:37;;;;;;;;;;;;;;;12.32;87.39;98656.22;5103712;28;19919;-80
2024/03/03 07:23:03;;;;;;;;;;;;;;;12.47;86.60;98654.50;5104077;28;20498;-80
2024/03/03 07:25:28;;;;;;;;;;;;;;;12.79;85.41;98656.09;5110629;28;20376;-82
2024/03/03 07:27:53;;;;;;;;;;;;;;;12.99;85.18;98650.22;5110533;28;20442;-80
2024/03/03 07:30:19;;;;;;;;;;;;;;;12.96;84.49;98654.66;5089776;28;20011;-79
2024/03/03 07:32:44;;;;;;;;;;;;;;;12.91;84.69;98658.03;5102012;28;19915;-78
2024/03/03 07:35:09;;;;;;;;;;;;;;;13.14;85.32;98661.59;5109666;28;19919;-81
2024/03/03 07:37:35;;;;;;;;;;;;;;;13.41;84.80;98647.81;5110992;28;20540;-81
2024/03/03 07:40:00;;;;;;;;;;;;;;;13.30;83.81;98662.13;5108193;28;19923;-81
2024/03/03 07:42:25;;;;;;;;;;;;;;;13.12;82.23;98655.69;5095731;28;19923;-81
2024/03/03 07:44:50;;;;;;;;;;;;;;;12.84;83.78;98661.06;5107722;28;19938;-81
2024/03/03 07:47:16;;;;;;;;;;;;;;;12.64;84.88;98653.09;5109252;28;19927;-81
2024/03/03 07:49:42;;;;;;;;;;;;;;;12.44;84.25;98649.06;5094900;28;19916;-81
2024/03/03 07:52:08;;;;;;;;;;;;;;;12.57;83.67;98649.78;5109026;28;19965;-82
2024/03/03 07:54:34;;;;;;;;;;;;;;;12.69;85.39;98657.28;5104917;28;19920;-82
2024/03/03 07:56:59;;;;;;;;;;;;;;;12.93;83.09;98652.03;5102995;28;20480;-82
2024/03/03 07:59:24;;;;;;;;;;;;;;;12.90;84.32;98652.94;5090411;28;19927;-82
2024/03/03 08:01:49;;;;;;;;;;;;;;;13.01;82.54;98654.09;5091139;28;19989;-81
2024/03/03 08:04:15;;;;;;;;;;;;;;;13.29;82.57;98654.25;5089957;28;20007;-82
2024/03/03 08:06:41;;;;;;;;;;;;;;;13.25;81.22;98651.63;5102855;28;19916;-82
2024/03/03 08:09:06;;;;;;;;;;;;;;;13.32;78.72;98650.56;5104118;28;19999;-81
2024/03/03 08:11:33;;;;;;;;;;;;;;;13.54;76.60;98644.94;5092390;28;19912;-81
2024/03/03 08:13:58;;;;;;;;;;;;;;;13.76;77.28;98653.94;5099772;28;19947;-81
2024/03/03 08:16:24;;;;;;;;;;;;;;;14.03;78.01;98647.69;5113721;28;20426;-82
2024/03/03 08:18:49;;;;;;;;;;;;;;;14.08;74.33;98647.06;5094492;28;19943;-80
2024/03/03 08:21:14;;;;;;;;;;;;;;;14.06;73.59;98652.31;5093338;28;20348;-82
2024/03/03 08:23:40;;;;;;;;;;;;;;;14.26;73.55;98656.19;5093877;28;20014;-81
2024/03/03 08:26:05;;;;;;;;;;;;;;;14.54;68.50;98659.78;5093539;28;19999;-81
2024/03/03 08:28:33;;;;;;;;;;;;;;;14.27;66.86;98654.97;5106554;28;20395;-82
2024/03/03 08:30:58;;;;;;;;;;;;;;;14.30;69.03;98658.81;5100086;28;20362;-81
2024/03/03 08:33:24;;;;;;;;;;;;;;;14.09;68.92;98651.41;5114754;28;19923;-81
2024/03/03 08:35:49;;;;;;;;;;;;;;;14.24;69.83;98652.31;5100830;28;19977;-81
2024/03/03 08:38:14;;;;;;;;;;;;;;;14.18;69.21;98649.41;5113718;28;20388;-82
2024/03/03 08:40:39;;;;;;;;;;;;;;;14.84;68.65;98644.13;5109044;28;19916;-82
2024/03/03 08:43:05;;;;;;;;;;;;;;;15.10;65.98;98644.53;5094645;28;19912;-79
2024/03/03 08:45:30;;;;;;;;;;;;;;;15.28;68.55;98643.72;5106856;28;19955;-82
2024/03/03 08:47:55;;;;;;;;;;;;;;;15.34;68.18;98650.97;5105110;28;19919;-82
2024/03/03 08:50:21;;;;;;;;;;;;;;;15.32;65.30;98656.22;5114389;28;19912;-82
2024/03/03 08:52:46;;;;;;;;;;;;;;;14.95;66.75;98643.63;5113560;28;20388;-81
2024/03/03 08:55:12;;;;;;;;;;;;;;;14.62;69.41;98646.34;5110864;28;19964;-81
2024/03/03 08:57:37;;;;;;;;;;;;;;;14.69;70.34;98654.38;5103242;28;19915;-81
2024/03/03 09:00:03;;;;;;;;;;;;;;;14.74;67.18;98652.97;5113011;28;20019;-82
2024/03/03 09:02:29;;;;;;;;;;;;;;;14.73;67.99;98656.97;5113096;28;20377;-80
2024/03/03 09:04:56;;;;;;;;;;;;;;;14.89;67.24;98649.06;5109617;28;19964;-81
2024/03/03 09:07:21;;;;;;;;;;;;;;;14.61;66.72;98651.13;5092911;28;19951;-82
2024/03/03 09:09:48;;;;;;;;;;;;;;;14.34;68.12;98642.78;5092661;28;19950;-81
2024/03/03 09:12:13;;;;;;;;;;;;;;;14.51;68.27;98648.81;5092650;28;20419;-82
2024/03/03 09:14:39;;;;;;;;;;;;;;;14.37;67.61;98652.97;5096263;28;20036;-83
2024/03/03 09:17:04;;;;;;;;;;;;;;;13.40;75.16;98640.72;5112627;28;19916;-81
2024/03/03 09:19:30;;;;;;;;;;;;;;;13.79;80.92;98641.94;5096019;28;20290;-81
2024/03/03 09:21:55;;;;;;;;;;;;;;;13.63;78.32;98642.19;5092160;28;19924;-81
2024/03/03 09:24:22;;;;;;;;;;;;;;;13.56;76.33;98642.50;5096169;28;19931;-82
2024/03/03 09:26:51;;;;;;;;;;;;;;;13.57;77.64;98644.78;5102054;28;19912;-79
2024/03/03 09:29:16;;;;;;;;;;;;;;;13.33;79.46;98643.78;5109459;28;20100;-80
2024/03/03 09:31:47;;;;;;;;;;;;;;;13.21;83.07;98648.19;5113722;28;19978;-81
2024/03/03 09:34:12;;;;;;;;;;;;;;;13.53;88.19;98643.41;5104250;28;19916;-81
2024/03/03 09:36:37;;;;;;;;;;;;;;;13.38;83.43;98637.66;5103457;28;19939;-81
2024/03/03 09:39:03;;;;;;;;;;;;;;;13.61;83.95;98633.56;5112320;28;19916;-81
2024/03/03 09:41:29;;;;;;;;;;;;;;;13.53;81.73;98635.06;5101176;28;20443;-81
2024/03/03 09:43:59;;;;;;;;;;;;;;;13.32;84.66;98633.94;5091756;28;20313;-82
2024/03/03 09:46:27;;;;;;;;;;;;;;;13.32;83.92;98637.44;5104989;28;19969;-82
2024/03/03 09:48:54;;;;;;;;;;;;;;;13.19;86.06;98636.81;5099883;28;19955;-81
2024/03/03 09:51:19;;;;;;;;;;;;;;;13.12;86.55;98645.41;5099808;28;19916;-81
2024/03/03 09:53:44;;;;;;;;;;;;;;;13.39;84.11;98636.41;5091784;28;19969;-80
2024/03/03 09:56:11;;;;;;;;;;;;;;;13.23;83.51;98642.19;5103751;28;19917;-81
2024/03/03 09:58:36;;;;;;;;;;;;;;;13.41;80.02;98640.28;5113206;28;19918;-81
2024/03/03 10:01:02;;;;;;;;;;;;;;;12.80;81.10;98646.56;5099695;28;20006;-80
2024/03/03 10:03:28;;;;;;;;;;;;;;;12.89;86.00;98638.31;5097007;28;19916;-80
2024/03/03 10:05:55;;;;;;;;;;;;;;;12.73;83.95;98638.50;5112086;28;19912;-81
2024/03/03 10:08:21;;;;;;;;;;;;;;;12.85;82.47;98639.66;5111833;28;19916;-83
2024/03/03 10:10:47;;;;;;;;;;;;;;;12.88;82.75;98636.75;5100966;28;20007;-80
2024/03/03 10:13:14;;;;;;;;;;;;;;;13.25;84.05;98628.66;5094842;28;20523;-79
2024/03/03 10:15:43;;;;;;;;;;;;;;;13.09;82.04;98629.63;5104378;28;19920;-79
2024/03/03 10:18:08;;;;;;;;;;;;;;;12.98;84.50;98621.72;5105806;28;19923;-81
2024/03/03 10:20:34;;;;;;;;;;;;;;;12.65;83.64;98626.16;5096975;28;19946;-79
2024/03/03 10:22:59;;;;;;;;;;;;;;;12.80;86.92;98623.59;5091987;28;19924;-80
2024/03/03 10:25:25;;;;;;;;;;;;;;;13.61;86.51;98622.47;5102265;28;20311;-81
2024/03/03 10:27:51;;;;;;;;;;;;;;;14.19;82.18;98616.81;5091927;28;20464;-81
2024/03/03 10:30:18;;;;;;;;;;;;;;;14.62;76.48;98619.31;5105605;28;19963;-80
2024/03/03 10:32:44;;;;;;;;;;;;;;;14.70;72.41;98619.00;5112498;28;19959;-81
2024/03/03 10:35:10;;;;;;;;;;;;;;;14.40;76.33;98615.16;5111397;28;19916;-82
2024/03/03 10:37:35;;;;;;;;;;;;;;;13.29;77.31;98623.72;5111502;28;19922;-81
2024/03/03 10:40:01;;;;;;;;;;;;;;;13.43;81.33;98617.63;5111838;28;19916;-81
2024/03/03 10:42:29;;;;;;;;;;;;;;;13.20;77.62;98612.59;5105142;28;20389;-81
2024/03/03 10:44:54;;;;;;;;;;;;;;;13.11;81.45;98612.53;5091434;28;19975;-81
2024/03/03 10:47:20;;;;;;;;;;;;;;;12.95;78.99;98617.09;5111531;28;19916;-82
2024/03/03 10:49:46;;;;;;;;;;;;;;;12.79;79.69;98611.75;5111873;28;20392;-81
2024/03/03 10:52:12;;;;;;;;;;;;;;;13.10;81.71;98597.09;5091275;28;20463;-81
2024/03/03 10:54:37;;;;;;;;;;;;;;;13.12;80.37;98595.47;5094431;28;19920;-80
2024/03/03 10:57:03;;;;;;;;;;;;;;;13.26;82.79;98591.38;5104579;28;19968;-80
2024/03/03 10:59:31;;;;;;;;;;;;;;;13.86;80.56;98589.63;5094509;28;20313;-80
2024/03/03 11:01:57;;;;;;;;;;;;;;;14.21;77.40;98589.34;5100190;28;19930;-79
2024/03/03 11:04:29;;;;;;;;;;;;;;;13.74;75.35;98584.97;5100307;28;19938;-80
2024/03/03 11:06:56;;;;;;;;;;;;;;;13.87;78.04;98582.06;5103533;28;19922;-79
2024/03/03 11:09:21;;;;;;;;;;;;;;;14.01;77.96;98580.69;5093586;28;19911;-79
2024/03/03 11:11:50;;;;;;;;;;;;;;;13.53;77.01;98590.66;5107544;28;20410;-78
2024/03/03 11:14:16;;;;;;;;;;;;;;;13.39;76.37;98580.91;5108063;28;19920;-78
2024/03/03 11:16:44;;;;;;;;;;;;;;;13.09;77.46;98574.13;5108677;28;20392;-79
2024/03/03 11:19:11;;;;;;;;;;;;;;;13.66;76.17;98569.88;5110084;28;19920;-77
2024/03/03 11:21:37;;;;;;;;;;;;;;;14.46;71.55;98569.59;5108757;28;19928;-81
2024/03/03 11:24:06;;;;;;;;;;;;;;;14.67;67.95;98567.84;5110149;28;20656;-79
2024/03/03 11:26:45;;;;;;;;;;;;;;;14.81;68.24;98572.75;5106089;28;19916;-82
2024/03/03 11:29:10;;;;;;;;;;;;;;;14.95;71.43;98569.28;5110464;28;19976;-80
2024/03/03 11:31:36;;;;;;;;;;;;;;;14.71;71.26;98570.47;5109822;28;20342;-79
2024/03/03 11:34:03;;;;;;;;;;;;;;;14.62;72.46;98563.69;5111362;28;20445;-79
2024/03/03 11:36:29;;;;;;;;;;;;;;;14.34;75.57;98561.41;5103972;28;20006;-78
2024/03/03 11:38:58;;;;;;;;;;;;;;;13.89;78.63;98565.72;5109728;28;19927;-80
2024/03/03 11:41:24;;;;;;;;;;;;;;;13.77;79.89;98559.09;5110054;28;19916;-81
2024/03/03 11:43:50;;;;;;;;;;;;;;;13.83;79.84;98556.47;5110566;28;20505;-80
2024/03/03 11:46:35;;;;;;;;;;;;;;;13.70;79.11;98553.06;5113934;28;20007;-80
2024/03/03 11:49:00;;;;;;;;;;;;;;;13.60;80.38;98555.06;5114315;28;19920;-80
2024/03/03 11:51:28;;;;;;;;;;;;;;;13.53;83.46;98552.56;5113640;28;19976;-82
2024/03/03 11:53:57;;;;;;;;;;;;;;;13.68;78.97;98545.19;5113138;28;20396;-80
2024/03/03 11:56:22;;;;;;;;;;;;;;;13.77;79.92;98553.53;5112710;28;20286;-81
2024/03/03 11:58:48;;;;;;;;;;;;;;;13.70;81.58;98548.28;5114184;28;20430;-79
2024/03/03 12:01:20;;;;;;;;;;;;;;;13.94;79.99;98551.22;5112502;28;19959;-79
2024/03/03 12:03:46;;;;;;;;;;;;;;;14.26;77.16;98547.03;5114055;28;19926;-81
2024/03/03 12:06:14;;;;;;;;;;;;;;;14.43;76.05;98539.94;5110814;28;20359;-80
2024/03/03 12:08:39;;;;;;;;;;;;;;;14.31;73.79;98540.84;5113442;28;19916;-80
2024/03/03 12:11:13;;;;;;;;;;;;;;;14.68;71.83;98549.16;5113956;28;20006;-82
2024/03/03 12:13:39;;;;;;;;;;;;;;;14.86;68.32;98543.53;5112445;28;20301;-79
2024/03/03 12:16:04;;;;;;;;;;;;;;;14.55;71.86;98536.22;5113773;28;20469;-80
2024/03/03 12:18:29;;;;;;;;;;;;;;;14.38;73.40;98535.00;5113955;28;20441;-79
2024/03/03 12:20:57;;;;;;;;;;;;;;;14.14;73.39;98534.09;5113738;28;19920;-81
2024/03/03 12:23:22;;;;;;;;;;;;;;;14.25;72.00;98537.16;5113559;28;19984;-79
2024/03/03 12:25:48;;;;;;;;;;;;;;;14.13;71.92;98541.66;5110125;28;19998;-79
2024/03/03 12:28:13;;;;;;;;;;;;;;;14.18;72.32;98531.91;5114986;28;19923;-80
2024/03/03 12:30:38;;;;;;;;;;;;;;;14.09;73.03;98531.94;5103875;28;19927;-80
2024/03/03 12:33:07;;;;;;;;;;;;;;;14.01;76.17;98527.91;5105333;28;19920;-81
2024/03/03 12:35:33;;;;;;;;;;;;;;;14.46;72.44;98525.13;5113490;28;19920;-79
2024/03/03 12:37:58;;;;;;;;;;;;;;;14.80;72.19;98525.94;5111896;28;19922;-78
2024/03/03 12:40:27;;;;;;;;;;;;;;;14.88;69.11;98527.94;5107315;28;19928;-83